Fire Weather Observation
Issued by NWS Grand Junction, CO

Home | Current Version | Previous Version | Graphics & Text | Print | Product List | Glossary On
Versions: 1 2 3 4 5 6 7 8 9 10 11 12 13 14 15 16 17 18 19 20 21 22 23 24 25 26 27 28 29 30 31 32 33 34 35
000
SHUS65 KGJT 252014
FWOGJT

DAILY FIRE WEATHER OBSERVATION
NATIONAL WEATHER SERVICE GRAND JUNCTION CO
212 PM MDT TUE APR 25 2017

STATE OF THE WEATHER (W)               2
DRY BULB TEMPERATURE                   52   DEGREES FAHRENHEIT
RELATIVE HUMIDITY (RH)                 43   PERCENT
LIGHTNING ACTIVITY LEVEL
  (LAL - MIDNIGHT TO 2 PM)             2
WIND DIRECTION                         225  DEGREES (C IF CALM)
WIND SPEED                             16   MPH
MAX TEMP (2 PM - 2 PM)                 71   DEGREES FAHRENHEIT
MIN TEMP (2 PM - 2 PM)                 39   DEGREES FAHRENHEIT
MAX RH (2 PM - 2 PM)                   85   PERCENT
MIN RH (2 PM - 2 PM)                   18   PERCENT
PCPN DURATION                          0.0  HOURS
PCPN AMT (2 PM - 2 PM)                 M?   INCHES
LAL (2 PM - 2 PM)                      2

$$

METAR KGJT 251953Z 24014KT 10SM SCT070 BKN100 11/M01 A2969 RMK
      AO2 LTG DSNT N SLP025 VCSH T01111011



USA.gov is the U.S. government's official web portal to all federal, state and local government web resources and services.